<?xml version="1.0" encoding="UTF-8" standalone="no" ?>
<gpx xmlns="http://www.topografix.com/GPX/1/1" xmlns:xsi="http://www.w3.org/2001/XMLSchema-instance" xsi:schemaLocation="http://www.topografix.com/GPX/1/1 http://www.topografix.com/GPX/1/1/gpx.xsd" version="1.1" creator="VisuGPX - https://www.visugpx.com">
  <metadata>
    <name>Tour de la lironde</name>
    <desc><![CDATA[Sortie de 4 km autour de mon point de confinement 
]]></desc>
  </metadata>
  <trk>
    <name><![CDATA[2020-04-02-01]]></name>
    <trkseg>
      <trkpt lat="43.67167" lon="3.84129">
        <ele>-11.5</ele>
        <time>2020-04-02T12:39:03Z</time>
      </trkpt>
      <trkpt lat="43.67167" lon="3.84128">
        <ele>-9.1</ele>
        <time>2020-04-02T12:39:04Z</time>
      </trkpt>
      <trkpt lat="43.6716" lon="3.84136">
        <ele>29</ele>
        <time>2020-04-02T12:40:55Z</time>
      </trkpt>
      <trkpt lat="43.67154" lon="3.84151">
        <ele>29.8</ele>
        <time>2020-04-02T12:43:59Z</time>
      </trkpt>
      <trkpt lat="43.67152" lon="3.84138">
        <ele>29.3</ele>
        <time>2020-04-02T12:44:09Z</time>
      </trkpt>
      <trkpt lat="43.67158" lon="3.84147">
        <ele>29.1</ele>
        <time>2020-04-02T12:44:21Z</time>
      </trkpt>
      <trkpt lat="43.67167" lon="3.84149">
        <ele>29</ele>
        <time>2020-04-02T12:44:23Z</time>
      </trkpt>
      <trkpt lat="43.67176" lon="3.84157">
        <ele>28.8</ele>
        <time>2020-04-02T12:44:39Z</time>
      </trkpt>
      <trkpt lat="43.67185" lon="3.84162">
        <ele>28.6</ele>
        <time>2020-04-02T12:44:59Z</time>
      </trkpt>
      <trkpt lat="43.67194" lon="3.8416">
        <ele>28.8</ele>
        <time>2020-04-02T12:45:10Z</time>
      </trkpt>
      <trkpt lat="43.67203" lon="3.84159">
        <ele>29.1</ele>
        <time>2020-04-02T12:45:19Z</time>
      </trkpt>
      <trkpt lat="43.67212" lon="3.84155">
        <ele>29.3</ele>
        <time>2020-04-02T12:45:27Z</time>
      </trkpt>
      <trkpt lat="43.67221" lon="3.84152">
        <ele>29.5</ele>
        <time>2020-04-02T12:45:36Z</time>
      </trkpt>
      <trkpt lat="43.6723" lon="3.84147">
        <ele>29.7</ele>
        <time>2020-04-02T12:45:47Z</time>
      </trkpt>
      <trkpt lat="43.6724" lon="3.84142">
        <ele>29.7</ele>
        <time>2020-04-02T12:45:57Z</time>
      </trkpt>
      <trkpt lat="43.67249" lon="3.84139">
        <ele>29.8</ele>
        <time>2020-04-02T12:46:03Z</time>
      </trkpt>
      <trkpt lat="43.67258" lon="3.8414">
        <ele>29.8</ele>
        <time>2020-04-02T12:46:12Z</time>
      </trkpt>
      <trkpt lat="43.67267" lon="3.84137">
        <ele>29.8</ele>
        <time>2020-04-02T12:46:25Z</time>
      </trkpt>
      <trkpt lat="43.67273" lon="3.84127">
        <ele>29.8</ele>
        <time>2020-04-02T12:46:34Z</time>
      </trkpt>
      <trkpt lat="43.67278" lon="3.84116">
        <ele>29.7</ele>
        <time>2020-04-02T12:46:42Z</time>
      </trkpt>
      <trkpt lat="43.67285" lon="3.84106">
        <ele>29.7</ele>
        <time>2020-04-02T12:46:51Z</time>
      </trkpt>
      <trkpt lat="43.6729" lon="3.84094">
        <ele>29.3</ele>
        <time>2020-04-02T12:47:00Z</time>
      </trkpt>
      <trkpt lat="43.6729" lon="3.84081">
        <ele>29</ele>
        <time>2020-04-02T12:47:08Z</time>
      </trkpt>
      <trkpt lat="43.67288" lon="3.84068">
        <ele>28.7</ele>
        <time>2020-04-02T12:47:16Z</time>
      </trkpt>
      <trkpt lat="43.67287" lon="3.84054">
        <ele>28.3</ele>
        <time>2020-04-02T12:47:25Z</time>
      </trkpt>
      <trkpt lat="43.67295" lon="3.84047">
        <ele>28</ele>
        <time>2020-04-02T12:47:34Z</time>
      </trkpt>
      <trkpt lat="43.67303" lon="3.84042">
        <ele>27.8</ele>
        <time>2020-04-02T12:47:43Z</time>
      </trkpt>
      <trkpt lat="43.67312" lon="3.84038">
        <ele>27.6</ele>
        <time>2020-04-02T12:47:53Z</time>
      </trkpt>
      <trkpt lat="43.67321" lon="3.84034">
        <ele>27.6</ele>
        <time>2020-04-02T12:48:02Z</time>
      </trkpt>
      <trkpt lat="43.67331" lon="3.84031">
        <ele>28.1</ele>
        <time>2020-04-02T12:48:11Z</time>
      </trkpt>
      <trkpt lat="43.6734" lon="3.84028">
        <ele>28.7</ele>
        <time>2020-04-02T12:48:20Z</time>
      </trkpt>
      <trkpt lat="43.67349" lon="3.84025">
        <ele>29.2</ele>
        <time>2020-04-02T12:48:30Z</time>
      </trkpt>
      <trkpt lat="43.67357" lon="3.8402">
        <ele>29.5</ele>
        <time>2020-04-02T12:48:39Z</time>
      </trkpt>
      <trkpt lat="43.67366" lon="3.84016">
        <ele>29.7</ele>
        <time>2020-04-02T12:48:47Z</time>
      </trkpt>
      <trkpt lat="43.67375" lon="3.84009">
        <ele>29.8</ele>
        <time>2020-04-02T12:48:56Z</time>
      </trkpt>
      <trkpt lat="43.67384" lon="3.84003">
        <ele>30</ele>
        <time>2020-04-02T12:49:04Z</time>
      </trkpt>
      <trkpt lat="43.67392" lon="3.83997">
        <ele>30.2</ele>
        <time>2020-04-02T12:49:13Z</time>
      </trkpt>
      <trkpt lat="43.674" lon="3.83988">
        <ele>30.6</ele>
        <time>2020-04-02T12:49:21Z</time>
      </trkpt>
      <trkpt lat="43.67406" lon="3.83978">
        <ele>31.1</ele>
        <time>2020-04-02T12:49:31Z</time>
      </trkpt>
      <trkpt lat="43.67414" lon="3.83971">
        <ele>31.5</ele>
        <time>2020-04-02T12:49:39Z</time>
      </trkpt>
      <trkpt lat="43.67422" lon="3.83962">
        <ele>31.9</ele>
        <time>2020-04-02T12:49:49Z</time>
      </trkpt>
      <trkpt lat="43.6743" lon="3.83958">
        <ele>32.2</ele>
        <time>2020-04-02T12:49:57Z</time>
      </trkpt>
      <trkpt lat="43.67439" lon="3.83954">
        <ele>32.6</ele>
        <time>2020-04-02T12:50:05Z</time>
      </trkpt>
      <trkpt lat="43.67447" lon="3.83948">
        <ele>33</ele>
        <time>2020-04-02T12:50:14Z</time>
      </trkpt>
      <trkpt lat="43.67457" lon="3.83945">
        <ele>33.3</ele>
        <time>2020-04-02T12:50:24Z</time>
      </trkpt>
      <trkpt lat="43.67466" lon="3.83944">
        <ele>33.5</ele>
        <time>2020-04-02T12:50:32Z</time>
      </trkpt>
      <trkpt lat="43.67476" lon="3.83943">
        <ele>33.7</ele>
        <time>2020-04-02T12:50:42Z</time>
      </trkpt>
      <trkpt lat="43.67487" lon="3.83943">
        <ele>33.9</ele>
        <time>2020-04-02T12:50:52Z</time>
      </trkpt>
      <trkpt lat="43.67496" lon="3.83944">
        <ele>34</ele>
        <time>2020-04-02T12:50:59Z</time>
      </trkpt>
      <trkpt lat="43.67505" lon="3.83947">
        <ele>34</ele>
        <time>2020-04-02T12:51:06Z</time>
      </trkpt>
      <trkpt lat="43.67513" lon="3.83952">
        <ele>34</ele>
        <time>2020-04-02T12:51:16Z</time>
      </trkpt>
      <trkpt lat="43.67523" lon="3.83954">
        <ele>33.9</ele>
        <time>2020-04-02T12:51:24Z</time>
      </trkpt>
      <trkpt lat="43.67531" lon="3.83959">
        <ele>33.8</ele>
        <time>2020-04-02T12:51:33Z</time>
      </trkpt>
      <trkpt lat="43.6754" lon="3.83963">
        <ele>33.3</ele>
        <time>2020-04-02T12:51:43Z</time>
      </trkpt>
      <trkpt lat="43.67549" lon="3.8397">
        <ele>33</ele>
        <time>2020-04-02T12:51:53Z</time>
      </trkpt>
      <trkpt lat="43.67559" lon="3.83973">
        <ele>32.9</ele>
        <time>2020-04-02T12:52:02Z</time>
      </trkpt>
      <trkpt lat="43.67568" lon="3.83975">
        <ele>33.1</ele>
        <time>2020-04-02T12:52:10Z</time>
      </trkpt>
      <trkpt lat="43.67578" lon="3.83977">
        <ele>33.6</ele>
        <time>2020-04-02T12:52:17Z</time>
      </trkpt>
      <trkpt lat="43.67587" lon="3.83977">
        <ele>34.4</ele>
        <time>2020-04-02T12:52:28Z</time>
      </trkpt>
      <trkpt lat="43.67601" lon="3.83976">
        <ele>36.1</ele>
        <time>2020-04-02T12:53:36Z</time>
      </trkpt>
      <trkpt lat="43.6761" lon="3.83973">
        <ele>36.1</ele>
        <time>2020-04-02T12:53:44Z</time>
      </trkpt>
      <trkpt lat="43.67619" lon="3.83971">
        <ele>36.2</ele>
        <time>2020-04-02T12:53:52Z</time>
      </trkpt>
      <trkpt lat="43.67629" lon="3.8397">
        <ele>36.3</ele>
        <time>2020-04-02T12:54:00Z</time>
      </trkpt>
      <trkpt lat="43.67639" lon="3.83969">
        <ele>36.7</ele>
        <time>2020-04-02T12:54:10Z</time>
      </trkpt>
      <trkpt lat="43.67648" lon="3.83966">
        <ele>37</ele>
        <time>2020-04-02T12:54:19Z</time>
      </trkpt>
      <trkpt lat="43.67657" lon="3.83967">
        <ele>37.3</ele>
        <time>2020-04-02T12:54:30Z</time>
      </trkpt>
      <trkpt lat="43.67666" lon="3.83972">
        <ele>37.7</ele>
        <time>2020-04-02T12:54:40Z</time>
      </trkpt>
      <trkpt lat="43.67675" lon="3.8397">
        <ele>38</ele>
        <time>2020-04-02T12:54:50Z</time>
      </trkpt>
      <trkpt lat="43.67685" lon="3.83974">
        <ele>38.2</ele>
        <time>2020-04-02T12:55:01Z</time>
      </trkpt>
      <trkpt lat="43.67694" lon="3.83973">
        <ele>38.1</ele>
        <time>2020-04-02T12:55:09Z</time>
      </trkpt>
      <trkpt lat="43.67703" lon="3.83971">
        <ele>38.1</ele>
        <time>2020-04-02T12:55:16Z</time>
      </trkpt>
      <trkpt lat="43.67712" lon="3.83966">
        <ele>38.2</ele>
        <time>2020-04-02T12:55:25Z</time>
      </trkpt>
      <trkpt lat="43.67722" lon="3.83962">
        <ele>38.4</ele>
        <time>2020-04-02T12:55:40Z</time>
      </trkpt>
      <trkpt lat="43.67731" lon="3.83961">
        <ele>38.7</ele>
        <time>2020-04-02T12:55:48Z</time>
      </trkpt>
      <trkpt lat="43.67739" lon="3.83951">
        <ele>39.2</ele>
        <time>2020-04-02T12:55:55Z</time>
      </trkpt>
      <trkpt lat="43.67744" lon="3.8394">
        <ele>39.7</ele>
        <time>2020-04-02T12:56:03Z</time>
      </trkpt>
      <trkpt lat="43.6775" lon="3.83929">
        <ele>40.1</ele>
        <time>2020-04-02T12:56:12Z</time>
      </trkpt>
      <trkpt lat="43.67755" lon="3.83918">
        <ele>40.4</ele>
        <time>2020-04-02T12:56:21Z</time>
      </trkpt>
      <trkpt lat="43.67762" lon="3.83909">
        <ele>40.7</ele>
        <time>2020-04-02T12:56:31Z</time>
      </trkpt>
      <trkpt lat="43.67766" lon="3.83897">
        <ele>41</ele>
        <time>2020-04-02T12:56:39Z</time>
      </trkpt>
      <trkpt lat="43.6776" lon="3.83886">
        <ele>41.6</ele>
        <time>2020-04-02T12:56:50Z</time>
      </trkpt>
      <trkpt lat="43.67753" lon="3.83879">
        <ele>42.7</ele>
        <time>2020-04-02T12:56:59Z</time>
      </trkpt>
      <trkpt lat="43.67743" lon="3.83875">
        <ele>43.8</ele>
        <time>2020-04-02T12:57:07Z</time>
      </trkpt>
      <trkpt lat="43.67735" lon="3.83869">
        <ele>45</ele>
        <time>2020-04-02T12:57:16Z</time>
      </trkpt>
      <trkpt lat="43.67727" lon="3.83861">
        <ele>45.9</ele>
        <time>2020-04-02T12:57:25Z</time>
      </trkpt>
      <trkpt lat="43.6772" lon="3.83853">
        <ele>46.7</ele>
        <time>2020-04-02T12:57:34Z</time>
      </trkpt>
      <trkpt lat="43.67711" lon="3.83847">
        <ele>47.4</ele>
        <time>2020-04-02T12:57:43Z</time>
      </trkpt>
      <trkpt lat="43.67703" lon="3.83841">
        <ele>48.1</ele>
        <time>2020-04-02T12:57:54Z</time>
      </trkpt>
      <trkpt lat="43.67695" lon="3.83833">
        <ele>49</ele>
        <time>2020-04-02T12:58:06Z</time>
      </trkpt>
      <trkpt lat="43.67685" lon="3.83831">
        <ele>49.4</ele>
        <time>2020-04-02T12:58:15Z</time>
      </trkpt>
      <trkpt lat="43.67676" lon="3.83828">
        <ele>49.6</ele>
        <time>2020-04-02T12:58:23Z</time>
      </trkpt>
      <trkpt lat="43.67666" lon="3.83828">
        <ele>49.8</ele>
        <time>2020-04-02T12:58:30Z</time>
      </trkpt>
      <trkpt lat="43.67657" lon="3.83827">
        <ele>49.4</ele>
        <time>2020-04-02T12:58:39Z</time>
      </trkpt>
      <trkpt lat="43.67646" lon="3.83829">
        <ele>49.5</ele>
        <time>2020-04-02T12:58:50Z</time>
      </trkpt>
      <trkpt lat="43.67636" lon="3.83829">
        <ele>48.9</ele>
        <time>2020-04-02T12:58:58Z</time>
      </trkpt>
      <trkpt lat="43.67627" lon="3.83828">
        <ele>47.9</ele>
        <time>2020-04-02T12:59:05Z</time>
      </trkpt>
      <trkpt lat="43.67617" lon="3.83828">
        <ele>47.3</ele>
        <time>2020-04-02T12:59:12Z</time>
      </trkpt>
      <trkpt lat="43.67608" lon="3.8383">
        <ele>47</ele>
        <time>2020-04-02T12:59:22Z</time>
      </trkpt>
      <trkpt lat="43.67599" lon="3.83828">
        <ele>47.1</ele>
        <time>2020-04-02T12:59:30Z</time>
      </trkpt>
      <trkpt lat="43.67589" lon="3.83829">
        <ele>47.4</ele>
        <time>2020-04-02T12:59:38Z</time>
      </trkpt>
      <trkpt lat="43.67579" lon="3.83828">
        <ele>47.8</ele>
        <time>2020-04-02T12:59:49Z</time>
      </trkpt>
      <trkpt lat="43.6757" lon="3.83826">
        <ele>48.1</ele>
        <time>2020-04-02T12:59:58Z</time>
      </trkpt>
      <trkpt lat="43.67561" lon="3.83821">
        <ele>48.3</ele>
        <time>2020-04-02T13:00:06Z</time>
      </trkpt>
      <trkpt lat="43.67551" lon="3.83822">
        <ele>48.5</ele>
        <time>2020-04-02T13:00:13Z</time>
      </trkpt>
      <trkpt lat="43.67542" lon="3.8382">
        <ele>48.7</ele>
        <time>2020-04-02T13:00:20Z</time>
      </trkpt>
      <trkpt lat="43.67533" lon="3.83825">
        <ele>48.9</ele>
        <time>2020-04-02T13:00:30Z</time>
      </trkpt>
      <trkpt lat="43.67524" lon="3.83825">
        <ele>49.1</ele>
        <time>2020-04-02T13:00:39Z</time>
      </trkpt>
      <trkpt lat="43.67515" lon="3.83823">
        <ele>49.4</ele>
        <time>2020-04-02T13:00:50Z</time>
      </trkpt>
      <trkpt lat="43.67507" lon="3.83816">
        <ele>50</ele>
        <time>2020-04-02T13:01:01Z</time>
      </trkpt>
      <trkpt lat="43.67502" lon="3.83804">
        <ele>50.7</ele>
        <time>2020-04-02T13:01:12Z</time>
      </trkpt>
      <trkpt lat="43.67496" lon="3.83794">
        <ele>51.9</ele>
        <time>2020-04-02T13:01:27Z</time>
      </trkpt>
      <trkpt lat="43.67494" lon="3.83781">
        <ele>52.3</ele>
        <time>2020-04-02T13:01:35Z</time>
      </trkpt>
      <trkpt lat="43.67493" lon="3.83767">
        <ele>53</ele>
        <time>2020-04-02T13:01:43Z</time>
      </trkpt>
      <trkpt lat="43.67497" lon="3.83756">
        <ele>53.4</ele>
        <time>2020-04-02T13:01:50Z</time>
      </trkpt>
      <trkpt lat="43.67489" lon="3.83748">
        <ele>53.8</ele>
        <time>2020-04-02T13:01:58Z</time>
      </trkpt>
      <trkpt lat="43.67479" lon="3.83742">
        <ele>54.1</ele>
        <time>2020-04-02T13:02:04Z</time>
      </trkpt>
      <trkpt lat="43.67469" lon="3.83739">
        <ele>54.4</ele>
        <time>2020-04-02T13:02:12Z</time>
      </trkpt>
      <trkpt lat="43.6746" lon="3.83737">
        <ele>54.9</ele>
        <time>2020-04-02T13:02:22Z</time>
      </trkpt>
      <trkpt lat="43.67451" lon="3.83732">
        <ele>55.5</ele>
        <time>2020-04-02T13:02:32Z</time>
      </trkpt>
      <trkpt lat="43.67442" lon="3.83732">
        <ele>56.4</ele>
        <time>2020-04-02T13:02:44Z</time>
      </trkpt>
      <trkpt lat="43.67433" lon="3.83728">
        <ele>57.2</ele>
        <time>2020-04-02T13:02:53Z</time>
      </trkpt>
      <trkpt lat="43.67423" lon="3.83725">
        <ele>57.8</ele>
        <time>2020-04-02T13:03:02Z</time>
      </trkpt>
      <trkpt lat="43.67413" lon="3.83724">
        <ele>58.5</ele>
        <time>2020-04-02T13:03:11Z</time>
      </trkpt>
      <trkpt lat="43.67405" lon="3.8372">
        <ele>59.1</ele>
        <time>2020-04-02T13:03:19Z</time>
      </trkpt>
      <trkpt lat="43.67395" lon="3.83716">
        <ele>59.8</ele>
        <time>2020-04-02T13:03:33Z</time>
      </trkpt>
      <trkpt lat="43.67386" lon="3.83711">
        <ele>60.1</ele>
        <time>2020-04-02T13:03:44Z</time>
      </trkpt>
      <trkpt lat="43.67378" lon="3.83705">
        <ele>60.2</ele>
        <time>2020-04-02T13:03:50Z</time>
      </trkpt>
      <trkpt lat="43.67368" lon="3.83699">
        <ele>60.2</ele>
        <time>2020-04-02T13:03:55Z</time>
      </trkpt>
      <trkpt lat="43.67359" lon="3.83692">
        <ele>60.2</ele>
        <time>2020-04-02T13:04:00Z</time>
      </trkpt>
      <trkpt lat="43.67351" lon="3.83686">
        <ele>60</ele>
        <time>2020-04-02T13:04:05Z</time>
      </trkpt>
      <trkpt lat="43.67339" lon="3.83682">
        <ele>59.9</ele>
        <time>2020-04-02T13:04:10Z</time>
      </trkpt>
      <trkpt lat="43.67331" lon="3.83679">
        <ele>59.8</ele>
        <time>2020-04-02T13:04:14Z</time>
      </trkpt>
      <trkpt lat="43.6732" lon="3.83674">
        <ele>59.5</ele>
        <time>2020-04-02T13:04:20Z</time>
      </trkpt>
      <trkpt lat="43.6733" lon="3.83681">
        <ele>59.4</ele>
        <time>2020-04-02T13:04:24Z</time>
      </trkpt>
      <trkpt lat="43.67339" lon="3.83686">
        <ele>59.4</ele>
        <time>2020-04-02T13:04:26Z</time>
      </trkpt>
      <trkpt lat="43.67351" lon="3.83692">
        <ele>59.3</ele>
        <time>2020-04-02T13:04:31Z</time>
      </trkpt>
      <trkpt lat="43.67344" lon="3.83699">
        <ele>59.3</ele>
        <time>2020-04-02T13:04:39Z</time>
      </trkpt>
      <trkpt lat="43.67335" lon="3.83704">
        <ele>59.3</ele>
        <time>2020-04-02T13:04:47Z</time>
      </trkpt>
      <trkpt lat="43.67326" lon="3.83705">
        <ele>59.4</ele>
        <time>2020-04-02T13:04:56Z</time>
      </trkpt>
      <trkpt lat="43.67318" lon="3.83701">
        <ele>59.4</ele>
        <time>2020-04-02T13:05:24Z</time>
      </trkpt>
      <trkpt lat="43.67309" lon="3.83704">
        <ele>59.3</ele>
        <time>2020-04-02T13:05:31Z</time>
      </trkpt>
      <trkpt lat="43.67299" lon="3.83709">
        <ele>59</ele>
        <time>2020-04-02T13:05:39Z</time>
      </trkpt>
      <trkpt lat="43.67291" lon="3.83717">
        <ele>58.7</ele>
        <time>2020-04-02T13:05:47Z</time>
      </trkpt>
      <trkpt lat="43.67281" lon="3.8372">
        <ele>58.2</ele>
        <time>2020-04-02T13:05:55Z</time>
      </trkpt>
      <trkpt lat="43.67274" lon="3.83728">
        <ele>57.8</ele>
        <time>2020-04-02T13:06:03Z</time>
      </trkpt>
      <trkpt lat="43.67265" lon="3.8373">
        <ele>57.4</ele>
        <time>2020-04-02T13:06:12Z</time>
      </trkpt>
      <trkpt lat="43.67255" lon="3.83732">
        <ele>57</ele>
        <time>2020-04-02T13:06:23Z</time>
      </trkpt>
      <trkpt lat="43.67247" lon="3.83738">
        <ele>56.6</ele>
        <time>2020-04-02T13:06:30Z</time>
      </trkpt>
      <trkpt lat="43.67236" lon="3.83737">
        <ele>56.1</ele>
        <time>2020-04-02T13:06:47Z</time>
      </trkpt>
      <trkpt lat="43.67227" lon="3.83731">
        <ele>56</ele>
        <time>2020-04-02T13:06:57Z</time>
      </trkpt>
      <trkpt lat="43.67218" lon="3.83728">
        <ele>55.9</ele>
        <time>2020-04-02T13:07:03Z</time>
      </trkpt>
      <trkpt lat="43.67209" lon="3.83724">
        <ele>55.7</ele>
        <time>2020-04-02T13:07:09Z</time>
      </trkpt>
      <trkpt lat="43.672" lon="3.83721">
        <ele>55.5</ele>
        <time>2020-04-02T13:07:17Z</time>
      </trkpt>
      <trkpt lat="43.67193" lon="3.83714">
        <ele>55.4</ele>
        <time>2020-04-02T13:07:26Z</time>
      </trkpt>
      <trkpt lat="43.67187" lon="3.83704">
        <ele>55.3</ele>
        <time>2020-04-02T13:07:37Z</time>
      </trkpt>
      <trkpt lat="43.6718" lon="3.83695">
        <ele>55.4</ele>
        <time>2020-04-02T13:07:48Z</time>
      </trkpt>
      <trkpt lat="43.67173" lon="3.83686">
        <ele>55.5</ele>
        <time>2020-04-02T13:07:58Z</time>
      </trkpt>
      <trkpt lat="43.67165" lon="3.83679">
        <ele>55.7</ele>
        <time>2020-04-02T13:08:07Z</time>
      </trkpt>
      <trkpt lat="43.67157" lon="3.83673">
        <ele>56.1</ele>
        <time>2020-04-02T13:08:16Z</time>
      </trkpt>
      <trkpt lat="43.67148" lon="3.83668">
        <ele>56.4</ele>
        <time>2020-04-02T13:08:26Z</time>
      </trkpt>
      <trkpt lat="43.67139" lon="3.83664">
        <ele>56.7</ele>
        <time>2020-04-02T13:08:34Z</time>
      </trkpt>
      <trkpt lat="43.6713" lon="3.83661">
        <ele>57</ele>
        <time>2020-04-02T13:08:42Z</time>
      </trkpt>
      <trkpt lat="43.67122" lon="3.83654">
        <ele>57.4</ele>
        <time>2020-04-02T13:08:52Z</time>
      </trkpt>
      <trkpt lat="43.67116" lon="3.83644">
        <ele>58.3</ele>
        <time>2020-04-02T13:09:05Z</time>
      </trkpt>
      <trkpt lat="43.67111" lon="3.83633">
        <ele>59.6</ele>
        <time>2020-04-02T13:09:16Z</time>
      </trkpt>
      <trkpt lat="43.67102" lon="3.83622">
        <ele>60.7</ele>
        <time>2020-04-02T13:09:27Z</time>
      </trkpt>
      <trkpt lat="43.67093" lon="3.83618">
        <ele>61.2</ele>
        <time>2020-04-02T13:09:32Z</time>
      </trkpt>
      <trkpt lat="43.67091" lon="3.83605">
        <ele>62</ele>
        <time>2020-04-02T13:09:44Z</time>
      </trkpt>
      <trkpt lat="43.6709" lon="3.83593">
        <ele>62.2</ele>
        <time>2020-04-02T13:09:50Z</time>
      </trkpt>
      <trkpt lat="43.67086" lon="3.83582">
        <ele>62.3</ele>
        <time>2020-04-02T13:09:57Z</time>
      </trkpt>
      <trkpt lat="43.6708" lon="3.8357">
        <ele>62.4</ele>
        <time>2020-04-02T13:10:09Z</time>
      </trkpt>
      <trkpt lat="43.67079" lon="3.83556">
        <ele>62.5</ele>
        <time>2020-04-02T13:10:15Z</time>
      </trkpt>
      <trkpt lat="43.67078" lon="3.83543">
        <ele>62.5</ele>
        <time>2020-04-02T13:10:20Z</time>
      </trkpt>
      <trkpt lat="43.67078" lon="3.8353">
        <ele>62.6</ele>
        <time>2020-04-02T13:10:28Z</time>
      </trkpt>
      <trkpt lat="43.67079" lon="3.83516">
        <ele>62.9</ele>
        <time>2020-04-02T13:10:38Z</time>
      </trkpt>
      <trkpt lat="43.67078" lon="3.83502">
        <ele>63.4</ele>
        <time>2020-04-02T13:10:52Z</time>
      </trkpt>
      <trkpt lat="43.67077" lon="3.83489">
        <ele>63.9</ele>
        <time>2020-04-02T13:11:02Z</time>
      </trkpt>
      <trkpt lat="43.67076" lon="3.83477">
        <ele>64.2</ele>
        <time>2020-04-02T13:11:11Z</time>
      </trkpt>
      <trkpt lat="43.67077" lon="3.83464">
        <ele>64.5</ele>
        <time>2020-04-02T13:11:20Z</time>
      </trkpt>
      <trkpt lat="43.67076" lon="3.83451">
        <ele>64.6</ele>
        <time>2020-04-02T13:11:28Z</time>
      </trkpt>
      <trkpt lat="43.67076" lon="3.83437">
        <ele>64.8</ele>
        <time>2020-04-02T13:11:37Z</time>
      </trkpt>
      <trkpt lat="43.67075" lon="3.83425">
        <ele>65</ele>
        <time>2020-04-02T13:11:46Z</time>
      </trkpt>
      <trkpt lat="43.67074" lon="3.83411">
        <ele>65.1</ele>
        <time>2020-04-02T13:11:56Z</time>
      </trkpt>
      <trkpt lat="43.67073" lon="3.83397">
        <ele>65.3</ele>
        <time>2020-04-02T13:12:07Z</time>
      </trkpt>
      <trkpt lat="43.67071" lon="3.83385">
        <ele>65.5</ele>
        <time>2020-04-02T13:12:16Z</time>
      </trkpt>
      <trkpt lat="43.67069" lon="3.83373">
        <ele>65.6</ele>
        <time>2020-04-02T13:12:24Z</time>
      </trkpt>
      <trkpt lat="43.67066" lon="3.8336">
        <ele>65.8</ele>
        <time>2020-04-02T13:12:33Z</time>
      </trkpt>
      <trkpt lat="43.67064" lon="3.83348">
        <ele>65.9</ele>
        <time>2020-04-02T13:12:42Z</time>
      </trkpt>
      <trkpt lat="43.6706" lon="3.83336">
        <ele>66.1</ele>
        <time>2020-04-02T13:12:51Z</time>
      </trkpt>
      <trkpt lat="43.67057" lon="3.83324">
        <ele>66.3</ele>
        <time>2020-04-02T13:13:00Z</time>
      </trkpt>
      <trkpt lat="43.67057" lon="3.83311">
        <ele>66.5</ele>
        <time>2020-04-02T13:13:09Z</time>
      </trkpt>
      <trkpt lat="43.67059" lon="3.83298">
        <ele>66.7</ele>
        <time>2020-04-02T13:13:17Z</time>
      </trkpt>
      <trkpt lat="43.67062" lon="3.83285">
        <ele>67</ele>
        <time>2020-04-02T13:13:24Z</time>
      </trkpt>
      <trkpt lat="43.67065" lon="3.83272">
        <ele>67.3</ele>
        <time>2020-04-02T13:13:33Z</time>
      </trkpt>
      <trkpt lat="43.67065" lon="3.83259">
        <ele>67.6</ele>
        <time>2020-04-02T13:13:42Z</time>
      </trkpt>
      <trkpt lat="43.67054" lon="3.8326">
        <ele>68.4</ele>
        <time>2020-04-02T13:14:21Z</time>
      </trkpt>
      <trkpt lat="43.67045" lon="3.83264">
        <ele>68.5</ele>
        <time>2020-04-02T13:14:30Z</time>
      </trkpt>
      <trkpt lat="43.67035" lon="3.83267">
        <ele>68.7</ele>
        <time>2020-04-02T13:14:39Z</time>
      </trkpt>
      <trkpt lat="43.67026" lon="3.83271">
        <ele>69</ele>
        <time>2020-04-02T13:14:48Z</time>
      </trkpt>
      <trkpt lat="43.67017" lon="3.83273">
        <ele>69.4</ele>
        <time>2020-04-02T13:14:56Z</time>
      </trkpt>
      <trkpt lat="43.67009" lon="3.83279">
        <ele>69.8</ele>
        <time>2020-04-02T13:15:04Z</time>
      </trkpt>
      <trkpt lat="43.67" lon="3.83282">
        <ele>70.3</ele>
        <time>2020-04-02T13:15:15Z</time>
      </trkpt>
      <trkpt lat="43.66991" lon="3.83284">
        <ele>70.8</ele>
        <time>2020-04-02T13:15:24Z</time>
      </trkpt>
      <trkpt lat="43.66981" lon="3.83288">
        <ele>71.4</ele>
        <time>2020-04-02T13:15:35Z</time>
      </trkpt>
      <trkpt lat="43.66972" lon="3.83289">
        <ele>72</ele>
        <time>2020-04-02T13:15:46Z</time>
      </trkpt>
      <trkpt lat="43.66962" lon="3.83291">
        <ele>72.6</ele>
        <time>2020-04-02T13:15:59Z</time>
      </trkpt>
      <trkpt lat="43.66953" lon="3.83294">
        <ele>72.9</ele>
        <time>2020-04-02T13:16:08Z</time>
      </trkpt>
      <trkpt lat="43.66944" lon="3.83297">
        <ele>73.2</ele>
        <time>2020-04-02T13:16:18Z</time>
      </trkpt>
      <trkpt lat="43.66936" lon="3.83299">
        <ele>73.5</ele>
        <time>2020-04-02T13:16:26Z</time>
      </trkpt>
      <trkpt lat="43.66926" lon="3.83301">
        <ele>74.1</ele>
        <time>2020-04-02T13:16:37Z</time>
      </trkpt>
      <trkpt lat="43.66917" lon="3.83304">
        <ele>74.6</ele>
        <time>2020-04-02T13:16:48Z</time>
      </trkpt>
      <trkpt lat="43.66908" lon="3.83308">
        <ele>74.9</ele>
        <time>2020-04-02T13:16:58Z</time>
      </trkpt>
      <trkpt lat="43.66899" lon="3.83309">
        <ele>75.1</ele>
        <time>2020-04-02T13:17:03Z</time>
      </trkpt>
      <trkpt lat="43.6689" lon="3.83313">
        <ele>75.3</ele>
        <time>2020-04-02T13:17:10Z</time>
      </trkpt>
      <trkpt lat="43.66881" lon="3.83314">
        <ele>75.4</ele>
        <time>2020-04-02T13:17:19Z</time>
      </trkpt>
      <trkpt lat="43.66873" lon="3.83306">
        <ele>75.4</ele>
        <time>2020-04-02T13:17:28Z</time>
      </trkpt>
      <trkpt lat="43.66868" lon="3.83295">
        <ele>75.4</ele>
        <time>2020-04-02T13:17:41Z</time>
      </trkpt>
      <trkpt lat="43.66864" lon="3.83283">
        <ele>75.7</ele>
        <time>2020-04-02T13:17:50Z</time>
      </trkpt>
      <trkpt lat="43.66864" lon="3.83269">
        <ele>76.1</ele>
        <time>2020-04-02T13:17:57Z</time>
      </trkpt>
      <trkpt lat="43.66862" lon="3.83256">
        <ele>76.4</ele>
        <time>2020-04-02T13:18:03Z</time>
      </trkpt>
      <trkpt lat="43.66853" lon="3.83258">
        <ele>77</ele>
        <time>2020-04-02T13:18:11Z</time>
      </trkpt>
      <trkpt lat="43.66844" lon="3.83262">
        <ele>77.8</ele>
        <time>2020-04-02T13:18:21Z</time>
      </trkpt>
      <trkpt lat="43.66834" lon="3.83264">
        <ele>78.6</ele>
        <time>2020-04-02T13:18:31Z</time>
      </trkpt>
      <trkpt lat="43.66825" lon="3.83265">
        <ele>79.1</ele>
        <time>2020-04-02T13:18:40Z</time>
      </trkpt>
      <trkpt lat="43.66816" lon="3.83261">
        <ele>79.6</ele>
        <time>2020-04-02T13:18:52Z</time>
      </trkpt>
      <trkpt lat="43.66813" lon="3.83273">
        <ele>80.7</ele>
        <time>2020-04-02T13:19:13Z</time>
      </trkpt>
      <trkpt lat="43.66806" lon="3.83281">
        <ele>81</ele>
        <time>2020-04-02T13:19:25Z</time>
      </trkpt>
      <trkpt lat="43.66797" lon="3.83282">
        <ele>81.4</ele>
        <time>2020-04-02T13:19:38Z</time>
      </trkpt>
      <trkpt lat="43.66787" lon="3.83282">
        <ele>82</ele>
        <time>2020-04-02T13:19:50Z</time>
      </trkpt>
      <trkpt lat="43.66778" lon="3.83279">
        <ele>82.8</ele>
        <time>2020-04-02T13:20:00Z</time>
      </trkpt>
      <trkpt lat="43.6677" lon="3.83286">
        <ele>84.3</ele>
        <time>2020-04-02T13:20:18Z</time>
      </trkpt>
      <trkpt lat="43.66773" lon="3.83299">
        <ele>84.5</ele>
        <time>2020-04-02T13:20:31Z</time>
      </trkpt>
      <trkpt lat="43.66773" lon="3.83312">
        <ele>84.3</ele>
        <time>2020-04-02T13:20:41Z</time>
      </trkpt>
      <trkpt lat="43.66768" lon="3.83323">
        <ele>83.8</ele>
        <time>2020-04-02T13:20:52Z</time>
      </trkpt>
      <trkpt lat="43.66764" lon="3.83335">
        <ele>83.2</ele>
        <time>2020-04-02T13:21:01Z</time>
      </trkpt>
      <trkpt lat="43.66761" lon="3.83347">
        <ele>82</ele>
        <time>2020-04-02T13:21:14Z</time>
      </trkpt>
      <trkpt lat="43.66755" lon="3.83356">
        <ele>81.2</ele>
        <time>2020-04-02T13:21:23Z</time>
      </trkpt>
      <trkpt lat="43.66749" lon="3.83366">
        <ele>79.9</ele>
        <time>2020-04-02T13:21:40Z</time>
      </trkpt>
      <trkpt lat="43.66748" lon="3.83379">
        <ele>76</ele>
        <time>2020-04-02T13:24:44Z</time>
      </trkpt>
      <trkpt lat="43.66741" lon="3.83388">
        <ele>75.9</ele>
        <time>2020-04-02T13:24:55Z</time>
      </trkpt>
      <trkpt lat="43.66738" lon="3.834">
        <ele>75.9</ele>
        <time>2020-04-02T13:25:05Z</time>
      </trkpt>
      <trkpt lat="43.66737" lon="3.83415">
        <ele>76</ele>
        <time>2020-04-02T13:25:14Z</time>
      </trkpt>
      <trkpt lat="43.66737" lon="3.83428">
        <ele>75.9</ele>
        <time>2020-04-02T13:25:24Z</time>
      </trkpt>
      <trkpt lat="43.66733" lon="3.83441">
        <ele>75.4</ele>
        <time>2020-04-02T13:25:33Z</time>
      </trkpt>
      <trkpt lat="43.66732" lon="3.83454">
        <ele>75.4</ele>
        <time>2020-04-02T13:25:44Z</time>
      </trkpt>
      <trkpt lat="43.66722" lon="3.83456">
        <ele>76.3</ele>
        <time>2020-04-02T13:26:02Z</time>
      </trkpt>
      <trkpt lat="43.66713" lon="3.83456">
        <ele>77.6</ele>
        <time>2020-04-02T13:26:14Z</time>
      </trkpt>
      <trkpt lat="43.66704" lon="3.83456">
        <ele>79</ele>
        <time>2020-04-02T13:26:25Z</time>
      </trkpt>
      <trkpt lat="43.66695" lon="3.83453">
        <ele>80.2</ele>
        <time>2020-04-02T13:26:34Z</time>
      </trkpt>
      <trkpt lat="43.66685" lon="3.83451">
        <ele>82</ele>
        <time>2020-04-02T13:26:44Z</time>
      </trkpt>
      <trkpt lat="43.66676" lon="3.83449">
        <ele>83.7</ele>
        <time>2020-04-02T13:26:55Z</time>
      </trkpt>
      <trkpt lat="43.66667" lon="3.83452">
        <ele>85.2</ele>
        <time>2020-04-02T13:27:05Z</time>
      </trkpt>
      <trkpt lat="43.66658" lon="3.8345">
        <ele>86.8</ele>
        <time>2020-04-02T13:27:18Z</time>
      </trkpt>
      <trkpt lat="43.66649" lon="3.83448">
        <ele>88.2</ele>
        <time>2020-04-02T13:27:31Z</time>
      </trkpt>
      <trkpt lat="43.6664" lon="3.83443">
        <ele>89.2</ele>
        <time>2020-04-02T13:27:43Z</time>
      </trkpt>
      <trkpt lat="43.66631" lon="3.83451">
        <ele>90.7</ele>
        <time>2020-04-02T13:28:05Z</time>
      </trkpt>
      <trkpt lat="43.66627" lon="3.83464">
        <ele>90.9</ele>
        <time>2020-04-02T13:28:15Z</time>
      </trkpt>
      <trkpt lat="43.6662" lon="3.83473">
        <ele>90.9</ele>
        <time>2020-04-02T13:28:25Z</time>
      </trkpt>
      <trkpt lat="43.66614" lon="3.83483">
        <ele>90.7</ele>
        <time>2020-04-02T13:28:36Z</time>
      </trkpt>
      <trkpt lat="43.66613" lon="3.83496">
        <ele>90.6</ele>
        <time>2020-04-02T13:28:45Z</time>
      </trkpt>
      <trkpt lat="43.66613" lon="3.83509">
        <ele>90.3</ele>
        <time>2020-04-02T13:28:54Z</time>
      </trkpt>
      <trkpt lat="43.6661" lon="3.83521">
        <ele>90</ele>
        <time>2020-04-02T13:29:03Z</time>
      </trkpt>
      <trkpt lat="43.66609" lon="3.83534">
        <ele>89.6</ele>
        <time>2020-04-02T13:29:12Z</time>
      </trkpt>
      <trkpt lat="43.66606" lon="3.83547">
        <ele>89.1</ele>
        <time>2020-04-02T13:29:22Z</time>
      </trkpt>
      <trkpt lat="43.66604" lon="3.83559">
        <ele>88.4</ele>
        <time>2020-04-02T13:29:33Z</time>
      </trkpt>
      <trkpt lat="43.66601" lon="3.83572">
        <ele>87.9</ele>
        <time>2020-04-02T13:29:44Z</time>
      </trkpt>
      <trkpt lat="43.666" lon="3.83585">
        <ele>87.7</ele>
        <time>2020-04-02T13:29:54Z</time>
      </trkpt>
      <trkpt lat="43.66599" lon="3.83597">
        <ele>87.5</ele>
        <time>2020-04-02T13:30:04Z</time>
      </trkpt>
      <trkpt lat="43.66599" lon="3.83611">
        <ele>87.4</ele>
        <time>2020-04-02T13:30:19Z</time>
      </trkpt>
      <trkpt lat="43.66601" lon="3.83624">
        <ele>87.4</ele>
        <time>2020-04-02T13:30:29Z</time>
      </trkpt>
      <trkpt lat="43.66604" lon="3.83636">
        <ele>87.5</ele>
        <time>2020-04-02T13:30:36Z</time>
      </trkpt>
      <trkpt lat="43.66606" lon="3.83649">
        <ele>87.5</ele>
        <time>2020-04-02T13:30:46Z</time>
      </trkpt>
      <trkpt lat="43.66606" lon="3.83661">
        <ele>87.2</ele>
        <time>2020-04-02T13:30:58Z</time>
      </trkpt>
      <trkpt lat="43.66605" lon="3.83674">
        <ele>86.8</ele>
        <time>2020-04-02T13:31:08Z</time>
      </trkpt>
      <trkpt lat="43.66606" lon="3.83687">
        <ele>86</ele>
        <time>2020-04-02T13:31:17Z</time>
      </trkpt>
      <trkpt lat="43.66606" lon="3.837">
        <ele>85.4</ele>
        <time>2020-04-02T13:31:26Z</time>
      </trkpt>
      <trkpt lat="43.66604" lon="3.83713">
        <ele>84.5</ele>
        <time>2020-04-02T13:31:38Z</time>
      </trkpt>
      <trkpt lat="43.66602" lon="3.83726">
        <ele>82.9</ele>
        <time>2020-04-02T13:31:51Z</time>
      </trkpt>
      <trkpt lat="43.66603" lon="3.83739">
        <ele>80.9</ele>
        <time>2020-04-02T13:32:05Z</time>
      </trkpt>
      <trkpt lat="43.66601" lon="3.83752">
        <ele>79.8</ele>
        <time>2020-04-02T13:32:17Z</time>
      </trkpt>
      <trkpt lat="43.66605" lon="3.83765">
        <ele>79.1</ele>
        <time>2020-04-02T13:32:27Z</time>
      </trkpt>
      <trkpt lat="43.66607" lon="3.83777">
        <ele>78.2</ele>
        <time>2020-04-02T13:32:39Z</time>
      </trkpt>
      <trkpt lat="43.66611" lon="3.83789">
        <ele>77.8</ele>
        <time>2020-04-02T13:32:49Z</time>
      </trkpt>
      <trkpt lat="43.66613" lon="3.83802">
        <ele>77.6</ele>
        <time>2020-04-02T13:32:59Z</time>
      </trkpt>
      <trkpt lat="43.66614" lon="3.83815">
        <ele>77.5</ele>
        <time>2020-04-02T13:33:08Z</time>
      </trkpt>
      <trkpt lat="43.66618" lon="3.83827">
        <ele>77.5</ele>
        <time>2020-04-02T13:33:18Z</time>
      </trkpt>
      <trkpt lat="43.66627" lon="3.83833">
        <ele>77.5</ele>
        <time>2020-04-02T13:33:26Z</time>
      </trkpt>
      <trkpt lat="43.66636" lon="3.83834">
        <ele>77.6</ele>
        <time>2020-04-02T13:33:34Z</time>
      </trkpt>
      <trkpt lat="43.66645" lon="3.83834">
        <ele>77.4</ele>
        <time>2020-04-02T13:33:43Z</time>
      </trkpt>
      <trkpt lat="43.66655" lon="3.8383">
        <ele>77.4</ele>
        <time>2020-04-02T13:33:54Z</time>
      </trkpt>
      <trkpt lat="43.66663" lon="3.83827">
        <ele>77.4</ele>
        <time>2020-04-02T13:34:03Z</time>
      </trkpt>
      <trkpt lat="43.66673" lon="3.83829">
        <ele>77.6</ele>
        <time>2020-04-02T13:34:13Z</time>
      </trkpt>
      <trkpt lat="43.66663" lon="3.83827">
        <ele>78</ele>
        <time>2020-04-02T13:34:34Z</time>
      </trkpt>
      <trkpt lat="43.66668" lon="3.83816">
        <ele>78.3</ele>
        <time>2020-04-02T13:34:56Z</time>
      </trkpt>
      <trkpt lat="43.66677" lon="3.83811">
        <ele>78.5</ele>
        <time>2020-04-02T13:35:06Z</time>
      </trkpt>
      <trkpt lat="43.66686" lon="3.83809">
        <ele>78.5</ele>
        <time>2020-04-02T13:35:14Z</time>
      </trkpt>
      <trkpt lat="43.66694" lon="3.838">
        <ele>79.5</ele>
        <time>2020-04-02T13:36:08Z</time>
      </trkpt>
      <trkpt lat="43.66703" lon="3.83794">
        <ele>79.7</ele>
        <time>2020-04-02T13:36:18Z</time>
      </trkpt>
      <trkpt lat="43.66712" lon="3.83786">
        <ele>79.7</ele>
        <time>2020-04-02T13:36:24Z</time>
      </trkpt>
      <trkpt lat="43.6672" lon="3.8378">
        <ele>79.8</ele>
        <time>2020-04-02T13:36:32Z</time>
      </trkpt>
      <trkpt lat="43.66728" lon="3.83775">
        <ele>79.9</ele>
        <time>2020-04-02T13:36:41Z</time>
      </trkpt>
      <trkpt lat="43.66737" lon="3.83772">
        <ele>80</ele>
        <time>2020-04-02T13:36:50Z</time>
      </trkpt>
      <trkpt lat="43.66747" lon="3.83772">
        <ele>80</ele>
        <time>2020-04-02T13:37:01Z</time>
      </trkpt>
      <trkpt lat="43.66756" lon="3.8377">
        <ele>79.7</ele>
        <time>2020-04-02T13:37:13Z</time>
      </trkpt>
      <trkpt lat="43.66765" lon="3.83764">
        <ele>79.2</ele>
        <time>2020-04-02T13:37:22Z</time>
      </trkpt>
      <trkpt lat="43.66775" lon="3.83762">
        <ele>78.6</ele>
        <time>2020-04-02T13:37:32Z</time>
      </trkpt>
      <trkpt lat="43.66784" lon="3.83761">
        <ele>77.7</ele>
        <time>2020-04-02T13:37:42Z</time>
      </trkpt>
      <trkpt lat="43.66793" lon="3.83759">
        <ele>76.1</ele>
        <time>2020-04-02T13:37:53Z</time>
      </trkpt>
      <trkpt lat="43.66802" lon="3.83756">
        <ele>75.2</ele>
        <time>2020-04-02T13:38:00Z</time>
      </trkpt>
      <trkpt lat="43.66812" lon="3.83757">
        <ele>74.2</ele>
        <time>2020-04-02T13:38:09Z</time>
      </trkpt>
      <trkpt lat="43.66819" lon="3.83748">
        <ele>73.3</ele>
        <time>2020-04-02T13:38:19Z</time>
      </trkpt>
      <trkpt lat="43.66823" lon="3.83737">
        <ele>72.9</ele>
        <time>2020-04-02T13:38:29Z</time>
      </trkpt>
      <trkpt lat="43.66829" lon="3.83725">
        <ele>73.1</ele>
        <time>2020-04-02T13:38:38Z</time>
      </trkpt>
      <trkpt lat="43.66835" lon="3.83715">
        <ele>73.4</ele>
        <time>2020-04-02T13:38:48Z</time>
      </trkpt>
      <trkpt lat="43.66841" lon="3.83706">
        <ele>73.6</ele>
        <time>2020-04-02T13:38:58Z</time>
      </trkpt>
      <trkpt lat="43.66844" lon="3.83694">
        <ele>73.7</ele>
        <time>2020-04-02T13:39:10Z</time>
      </trkpt>
      <trkpt lat="43.66846" lon="3.8368">
        <ele>73.9</ele>
        <time>2020-04-02T13:39:21Z</time>
      </trkpt>
      <trkpt lat="43.66851" lon="3.8367">
        <ele>73.9</ele>
        <time>2020-04-02T13:39:30Z</time>
      </trkpt>
      <trkpt lat="43.66857" lon="3.8366">
        <ele>73.8</ele>
        <time>2020-04-02T13:39:41Z</time>
      </trkpt>
      <trkpt lat="43.66863" lon="3.83649">
        <ele>73.8</ele>
        <time>2020-04-02T13:39:50Z</time>
      </trkpt>
      <trkpt lat="43.6687" lon="3.83639">
        <ele>73.8</ele>
        <time>2020-04-02T13:39:57Z</time>
      </trkpt>
      <trkpt lat="43.66876" lon="3.8363">
        <ele>73.4</ele>
        <time>2020-04-02T13:40:09Z</time>
      </trkpt>
      <trkpt lat="43.66881" lon="3.8364">
        <ele>72.6</ele>
        <time>2020-04-02T13:40:24Z</time>
      </trkpt>
      <trkpt lat="43.66882" lon="3.83653">
        <ele>71.5</ele>
        <time>2020-04-02T13:40:35Z</time>
      </trkpt>
      <trkpt lat="43.66883" lon="3.83666">
        <ele>70.3</ele>
        <time>2020-04-02T13:40:46Z</time>
      </trkpt>
      <trkpt lat="43.66883" lon="3.8368">
        <ele>69.3</ele>
        <time>2020-04-02T13:40:57Z</time>
      </trkpt>
      <trkpt lat="43.66881" lon="3.83692">
        <ele>68.6</ele>
        <time>2020-04-02T13:41:08Z</time>
      </trkpt>
      <trkpt lat="43.66879" lon="3.83704">
        <ele>68.2</ele>
        <time>2020-04-02T13:41:18Z</time>
      </trkpt>
      <trkpt lat="43.66875" lon="3.83718">
        <ele>68.1</ele>
        <time>2020-04-02T13:41:26Z</time>
      </trkpt>
      <trkpt lat="43.66873" lon="3.83731">
        <ele>68.1</ele>
        <time>2020-04-02T13:41:33Z</time>
      </trkpt>
      <trkpt lat="43.6687" lon="3.83745">
        <ele>68.1</ele>
        <time>2020-04-02T13:41:42Z</time>
      </trkpt>
      <trkpt lat="43.66867" lon="3.83757">
        <ele>68.1</ele>
        <time>2020-04-02T13:41:50Z</time>
      </trkpt>
      <trkpt lat="43.66871" lon="3.83769">
        <ele>67.4</ele>
        <time>2020-04-02T13:41:58Z</time>
      </trkpt>
      <trkpt lat="43.66875" lon="3.83782">
        <ele>66.9</ele>
        <time>2020-04-02T13:42:07Z</time>
      </trkpt>
      <trkpt lat="43.66879" lon="3.83794">
        <ele>65.8</ele>
        <time>2020-04-02T13:42:19Z</time>
      </trkpt>
      <trkpt lat="43.66884" lon="3.83804">
        <ele>65.6</ele>
        <time>2020-04-02T13:42:29Z</time>
      </trkpt>
      <trkpt lat="43.66887" lon="3.83817">
        <ele>65.2</ele>
        <time>2020-04-02T13:42:39Z</time>
      </trkpt>
      <trkpt lat="43.66885" lon="3.83829">
        <ele>64.8</ele>
        <time>2020-04-02T13:42:46Z</time>
      </trkpt>
      <trkpt lat="43.66884" lon="3.83842">
        <ele>64.5</ele>
        <time>2020-04-02T13:42:54Z</time>
      </trkpt>
      <trkpt lat="43.66886" lon="3.83855">
        <ele>64.3</ele>
        <time>2020-04-02T13:43:03Z</time>
      </trkpt>
      <trkpt lat="43.66887" lon="3.83868">
        <ele>64.3</ele>
        <time>2020-04-02T13:43:14Z</time>
      </trkpt>
      <trkpt lat="43.66889" lon="3.83882">
        <ele>64.3</ele>
        <time>2020-04-02T13:43:25Z</time>
      </trkpt>
      <trkpt lat="43.66889" lon="3.83895">
        <ele>64.4</ele>
        <time>2020-04-02T13:43:36Z</time>
      </trkpt>
      <trkpt lat="43.6689" lon="3.83908">
        <ele>64.4</ele>
        <time>2020-04-02T13:43:45Z</time>
      </trkpt>
      <trkpt lat="43.66893" lon="3.83921">
        <ele>64.5</ele>
        <time>2020-04-02T13:43:54Z</time>
      </trkpt>
      <trkpt lat="43.66896" lon="3.83933">
        <ele>64.6</ele>
        <time>2020-04-02T13:44:03Z</time>
      </trkpt>
      <trkpt lat="43.66901" lon="3.83945">
        <ele>64.7</ele>
        <time>2020-04-02T13:44:13Z</time>
      </trkpt>
      <trkpt lat="43.66907" lon="3.83955">
        <ele>64.7</ele>
        <time>2020-04-02T13:44:21Z</time>
      </trkpt>
      <trkpt lat="43.66913" lon="3.83966">
        <ele>64.6</ele>
        <time>2020-04-02T13:44:32Z</time>
      </trkpt>
      <trkpt lat="43.66918" lon="3.83977">
        <ele>63.9</ele>
        <time>2020-04-02T13:44:41Z</time>
      </trkpt>
      <trkpt lat="43.66921" lon="3.83989">
        <ele>63.5</ele>
        <time>2020-04-02T13:44:48Z</time>
      </trkpt>
      <trkpt lat="43.66923" lon="3.84002">
        <ele>63.2</ele>
        <time>2020-04-02T13:44:58Z</time>
      </trkpt>
      <trkpt lat="43.6692" lon="3.84014">
        <ele>63.3</ele>
        <time>2020-04-02T13:45:07Z</time>
      </trkpt>
      <trkpt lat="43.66921" lon="3.84028">
        <ele>63.8</ele>
        <time>2020-04-02T13:45:17Z</time>
      </trkpt>
      <trkpt lat="43.66919" lon="3.84041">
        <ele>64.3</ele>
        <time>2020-04-02T13:45:28Z</time>
      </trkpt>
      <trkpt lat="43.6691" lon="3.8405">
        <ele>64.6</ele>
        <time>2020-04-02T13:45:36Z</time>
      </trkpt>
      <trkpt lat="43.66903" lon="3.84058">
        <ele>64.8</ele>
        <time>2020-04-02T13:45:44Z</time>
      </trkpt>
      <trkpt lat="43.66898" lon="3.84071">
        <ele>65.2</ele>
        <time>2020-04-02T13:45:53Z</time>
      </trkpt>
      <trkpt lat="43.66892" lon="3.8408">
        <ele>65.5</ele>
        <time>2020-04-02T13:46:00Z</time>
      </trkpt>
      <trkpt lat="43.66889" lon="3.84092">
        <ele>65.8</ele>
        <time>2020-04-02T13:46:10Z</time>
      </trkpt>
      <trkpt lat="43.66897" lon="3.841">
        <ele>66.1</ele>
        <time>2020-04-02T13:46:20Z</time>
      </trkpt>
      <trkpt lat="43.66906" lon="3.84106">
        <ele>66</ele>
        <time>2020-04-02T13:46:29Z</time>
      </trkpt>
      <trkpt lat="43.66915" lon="3.84108">
        <ele>65.8</ele>
        <time>2020-04-02T13:46:37Z</time>
      </trkpt>
      <trkpt lat="43.66924" lon="3.84107">
        <ele>65.8</ele>
        <time>2020-04-02T13:46:46Z</time>
      </trkpt>
      <trkpt lat="43.66934" lon="3.84105">
        <ele>65.8</ele>
        <time>2020-04-02T13:46:57Z</time>
      </trkpt>
      <trkpt lat="43.66944" lon="3.84107">
        <ele>65.8</ele>
        <time>2020-04-02T13:47:07Z</time>
      </trkpt>
      <trkpt lat="43.66954" lon="3.84106">
        <ele>65.5</ele>
        <time>2020-04-02T13:47:16Z</time>
      </trkpt>
      <trkpt lat="43.66962" lon="3.84111">
        <ele>65.4</ele>
        <time>2020-04-02T13:47:25Z</time>
      </trkpt>
      <trkpt lat="43.66971" lon="3.84114">
        <ele>65.2</ele>
        <time>2020-04-02T13:47:35Z</time>
      </trkpt>
      <trkpt lat="43.6698" lon="3.84116">
        <ele>64.9</ele>
        <time>2020-04-02T13:47:47Z</time>
      </trkpt>
      <trkpt lat="43.66989" lon="3.84122">
        <ele>64.8</ele>
        <time>2020-04-02T13:47:55Z</time>
      </trkpt>
      <trkpt lat="43.66998" lon="3.84128">
        <ele>65</ele>
        <time>2020-04-02T13:48:07Z</time>
      </trkpt>
      <trkpt lat="43.67006" lon="3.84134">
        <ele>65.4</ele>
        <time>2020-04-02T13:48:17Z</time>
      </trkpt>
      <trkpt lat="43.67015" lon="3.84137">
        <ele>65.9</ele>
        <time>2020-04-02T13:48:28Z</time>
      </trkpt>
      <trkpt lat="43.67025" lon="3.84141">
        <ele>66.7</ele>
        <time>2020-04-02T13:48:40Z</time>
      </trkpt>
      <trkpt lat="43.67034" lon="3.84143">
        <ele>67.3</ele>
        <time>2020-04-02T13:48:50Z</time>
      </trkpt>
      <trkpt lat="43.67043" lon="3.8415">
        <ele>67.8</ele>
        <time>2020-04-02T13:48:57Z</time>
      </trkpt>
      <trkpt lat="43.67053" lon="3.84151">
        <ele>68.4</ele>
        <time>2020-04-02T13:49:06Z</time>
      </trkpt>
      <trkpt lat="43.67063" lon="3.84152">
        <ele>68.9</ele>
        <time>2020-04-02T13:49:14Z</time>
      </trkpt>
      <trkpt lat="43.67072" lon="3.84154">
        <ele>69.2</ele>
        <time>2020-04-02T13:49:24Z</time>
      </trkpt>
      <trkpt lat="43.6708" lon="3.8416">
        <ele>69.4</ele>
        <time>2020-04-02T13:49:33Z</time>
      </trkpt>
      <trkpt lat="43.67089" lon="3.84159">
        <ele>69.5</ele>
        <time>2020-04-02T13:49:43Z</time>
      </trkpt>
      <trkpt lat="43.67099" lon="3.84162">
        <ele>69.6</ele>
        <time>2020-04-02T13:49:51Z</time>
      </trkpt>
      <trkpt lat="43.67107" lon="3.84167">
        <ele>69.6</ele>
        <time>2020-04-02T13:50:00Z</time>
      </trkpt>
      <trkpt lat="43.67117" lon="3.84168">
        <ele>69.7</ele>
        <time>2020-04-02T13:50:13Z</time>
      </trkpt>
      <trkpt lat="43.67127" lon="3.84169">
        <ele>70.1</ele>
        <time>2020-04-02T13:50:24Z</time>
      </trkpt>
      <trkpt lat="43.67137" lon="3.84169">
        <ele>70.5</ele>
        <time>2020-04-02T13:50:34Z</time>
      </trkpt>
      <trkpt lat="43.67146" lon="3.84168">
        <ele>70.8</ele>
        <time>2020-04-02T13:50:43Z</time>
      </trkpt>
      <trkpt lat="43.67155" lon="3.84167">
        <ele>71.3</ele>
        <time>2020-04-02T13:50:53Z</time>
      </trkpt>
      <trkpt lat="43.67165" lon="3.84166">
        <ele>71.8</ele>
        <time>2020-04-02T13:51:03Z</time>
      </trkpt>
      <trkpt lat="43.67173" lon="3.8416">
        <ele>72.6</ele>
        <time>2020-04-02T13:51:30Z</time>
      </trkpt>
      <trkpt lat="43.67165" lon="3.84153">
        <ele>72.1</ele>
        <time>2020-04-02T13:51:42Z</time>
      </trkpt>
      <trkpt lat="43.67164" lon="3.84146">
        <ele>72.9</ele>
        <time>2020-04-02T13:52:47Z</time>
      </trkpt>
    </trkseg>
  </trk>
</gpx>